createdAt,value
2024-01-06T00:00:32.310Z,5.75
2024-01-06T00:03:35.998Z,5.74
2024-01-06T00:06:38.900Z,5.76
2024-01-06T00:09:41.998Z,5.77
2024-01-06T00:12:45.503Z,5.78
2024-01-06T00:15:48.917Z,5.74
2024-01-06T00:18:52.192Z,5.79
2024-01-06T00:21:55.183Z,5.78
2024-01-06T00:24:58.032Z,5.76
2024-01-06T00:28:01.115Z,5.78
2024-01-06T00:31:04.569Z,5.76
2024-01-06T00:34:08.123Z,5.84
2024-01-06T00:37:11.365Z,5.84
2024-01-06T00:40:14.588Z,5.86
2024-01-06T00:43:17.809Z,5.92
2024-01-06T00:46:20.889Z,5.89
2024-01-06T00:49:24.109Z,5.94
2024-01-06T00:52:26.974Z,5.95
2024-01-06T00:55:32.880Z,5.94
2024-01-06T00:58:36.007Z,6.00
2024-01-06T01:01:38.890Z,5.98
2024-01-06T01:04:42.361Z,5.96
2024-01-06T01:07:45.540Z,5.97
2024-01-06T01:10:48.707Z,5.99
2024-01-06T01:13:52.082Z,6.04
2024-01-06T01:16:55.164Z,6.08
2024-01-06T01:19:58.288Z,6.03
2024-01-06T01:23:01.374Z,6.01
2024-01-06T01:26:04.565Z,6.00
2024-01-06T01:29:07.410Z,6.03
2024-01-06T01:32:10.295Z,6.00
2024-01-06T01:35:13.472Z,6.01
2024-01-06T01:38:16.621Z,5.99
2024-01-06T01:41:19.896Z,5.98
2024-01-06T01:44:23.030Z,5.99
2024-01-06T01:47:26.820Z,5.98
2024-01-06T01:50:32.214Z,5.99
2024-01-06T01:53:35.326Z,6.00
2024-01-06T01:56:40.976Z,5.99
2024-01-06T01:59:44.021Z,6.00
2024-01-06T02:02:47.529Z,6.01
2024-01-06T02:05:50.478Z,6.02
2024-01-06T02:08:53.718Z,5.99
2024-01-06T02:11:59.691Z,6.04
2024-01-06T02:15:02.576Z,5.98
2024-01-06T02:18:06.152Z,6.02
2024-01-06T02:21:12.709Z,6.02
2024-01-06T02:24:15.593Z,5.98
2024-01-06T02:27:18.837Z,6.01
2024-01-06T02:30:21.876Z,5.93
2024-01-06T02:33:25.633Z,5.96
2024-01-06T02:36:28.712Z,5.99
2024-01-06T02:39:31.837Z,5.97
2024-01-06T02:42:35.027Z,6.02
2024-01-06T02:45:38.235Z,6.04
2024-01-06T02:48:41.453Z,6.07
2024-01-06T02:51:44.418Z,6.11
2024-01-06T02:54:47.608Z,6.12
2024-01-06T02:57:50.465Z,6.15
2024-01-06T03:00:53.699Z,6.16
2024-01-06T03:03:56.944Z,6.12
2024-01-06T03:07:00.029Z,6.16
2024-01-06T03:10:03.831Z,6.16
2024-01-06T03:13:08.894Z,6.15
2024-01-06T03:16:13.417Z,6.19
2024-01-06T03:19:16.712Z,6.17
2024-01-06T03:22:19.844Z,6.19
2024-01-06T03:25:22.990Z,6.19
2024-01-06T03:28:26.088Z,6.17
2024-01-06T03:31:28.913Z,6.18
2024-01-06T03:34:32.228Z,6.14
2024-01-06T03:37:35.741Z,6.11
2024-01-06T03:40:38.845Z,6.07
2024-01-06T03:43:41.854Z,6.02
2024-01-06T03:46:44.989Z,5.99
2024-01-06T03:49:48.237Z,5.98
2024-01-06T03:52:51.354Z,6.02
2024-01-06T03:55:54.475Z,5.97
2024-01-06T03:58:57.588Z,5.95
2024-01-06T04:02:00.731Z,5.94
2024-01-06T04:05:06.285Z,5.94
2024-01-06T04:08:09.596Z,5.91
2024-01-06T04:11:12.626Z,5.91
2024-01-06T04:14:15.408Z,5.85
2024-01-06T04:17:18.479Z,5.86
2024-01-06T04:20:21.776Z,5.91
2024-01-06T04:23:26.446Z,5.90
2024-01-06T04:26:29.758Z,5.88
2024-01-06T04:29:33.053Z,5.88
2024-01-06T04:32:36.197Z,5.86
2024-01-06T04:35:39.353Z,5.82
2024-01-06T04:38:42.567Z,5.87
2024-01-06T04:41:45.479Z,5.81
2024-01-06T04:44:48.565Z,5.73
2024-01-06T04:47:52.252Z,5.69
2024-01-06T04:50:55.425Z,5.69
2024-01-06T04:53:58.276Z,5.68
2024-01-06T04:57:01.152Z,5.67
2024-01-06T05:00:05.628Z,5.67
2024-01-06T05:03:09.616Z,5.67
2024-01-06T05:06:13.288Z,5.62
2024-01-06T05:09:16.258Z,5.62
2024-01-06T05:12:19.145Z,5.59
2024-01-06T05:15:22.496Z,5.56
2024-01-06T05:18:25.849Z,5.55
2024-01-06T05:21:29.923Z,5.58
2024-01-06T05:24:33.036Z,5.60
2024-01-06T05:27:36.528Z,5.54
2024-01-06T05:30:39.934Z,5.60
2024-01-06T05:33:43.824Z,5.68
2024-01-06T05:36:47.211Z,5.72
2024-01-06T05:39:50.317Z,5.74
2024-01-06T05:42:56.761Z,5.70
2024-01-06T05:45:59.697Z,5.71
2024-01-06T05:49:02.995Z,5.68
2024-01-06T05:52:06.304Z,5.60
2024-01-06T05:55:10.220Z,5.65
2024-01-06T05:58:13.512Z,5.65
2024-01-06T06:01:17.976Z,5.58
2024-01-06T06:04:22.154Z,5.53
2024-01-06T06:07:25.393Z,5.60
2024-01-06T06:10:41.634Z,5.59
2024-01-06T06:13:44.694Z,5.54
2024-01-06T06:16:49.095Z,5.53
2024-01-06T06:19:52.369Z,5.53
2024-01-06T06:22:55.396Z,5.50
2024-01-06T06:25:58.576Z,5.59
2024-01-06T06:29:02.521Z,5.59
2024-01-06T06:32:05.611Z,5.59
2024-01-06T06:35:09.105Z,5.60
2024-01-06T06:38:12.304Z,5.58
2024-01-06T06:41:15.111Z,5.64
2024-01-06T06:44:18.315Z,5.66
2024-01-06T06:47:21.719Z,5.67
2024-01-06T06:50:24.860Z,5.64
2024-01-06T06:53:28.163Z,5.52
2024-01-06T06:56:30.959Z,5.58
2024-01-06T06:59:34.108Z,5.58
2024-01-06T07:02:38.080Z,5.66
2024-01-06T07:05:41.321Z,5.63
2024-01-06T07:08:44.220Z,5.65
2024-01-06T07:11:46.992Z,5.67
2024-01-06T07:14:49.901Z,5.68
2024-01-06T07:17:53.237Z,5.71
2024-01-06T07:20:56.193Z,5.74
2024-01-06T07:23:59.295Z,5.75
2024-01-06T07:27:02.215Z,5.76
2024-01-06T07:30:06.106Z,5.74
2024-01-06T07:33:10.249Z,5.77
2024-01-06T07:36:13.210Z,5.81
2024-01-06T07:39:16.403Z,5.85
2024-01-06T07:42:19.573Z,5.89
2024-01-06T07:45:23.194Z,5.85
2024-01-06T07:48:26.500Z,5.87
2024-01-06T07:51:29.965Z,5.83
2024-01-06T07:54:33.106Z,5.86
2024-01-06T07:57:36.314Z,5.92
2024-01-06T08:00:39.351Z,5.95
2024-01-06T08:03:42.605Z,6.00
2024-01-06T08:06:45.835Z,5.97
2024-01-06T08:09:48.772Z,5.96
2024-01-06T08:12:52.062Z,6.06
2024-01-06T08:15:55.235Z,6.03
2024-01-06T08:18:58.418Z,6.04
2024-01-06T08:22:01.726Z,6.06
2024-01-06T08:25:07.560Z,6.03
2024-01-06T08:28:10.932Z,6.03
2024-01-06T08:31:13.802Z,6.07
2024-01-06T08:34:16.882Z,6.03
2024-01-06T08:37:19.804Z,6.02
2024-01-06T08:40:22.692Z,6.03
2024-01-06T08:43:25.882Z,6.07
2024-01-06T08:46:29.185Z,6.11
2024-01-06T08:49:32.542Z,6.04
2024-01-06T08:52:36.206Z,6.03
2024-01-06T08:55:39.339Z,6.02
2024-01-06T08:58:42.456Z,6.14
2024-01-06T09:01:47.295Z,6.16
2024-01-06T09:04:51.878Z,6.18
2024-01-06T09:07:55.916Z,6.16
2024-01-06T09:10:59.768Z,6.18
2024-01-06T09:14:02.854Z,6.17
2024-01-06T09:17:05.958Z,6.22
2024-01-06T09:20:09.476Z,6.26
2024-01-06T09:23:12.551Z,6.29
2024-01-06T09:26:17.698Z,6.30
2024-01-06T09:29:20.883Z,6.28
2024-01-06T09:32:24.363Z,6.35
2024-01-06T09:35:27.529Z,6.33
2024-01-06T09:38:30.436Z,6.41
2024-01-06T09:41:33.341Z,6.41
2024-01-06T09:44:36.292Z,6.43
2024-01-06T09:47:42.250Z,6.47
2024-01-06T09:50:48.586Z,6.46
2024-01-06T09:54:02.796Z,6.42
2024-01-06T09:57:07.400Z,6.43
2024-01-06T10:00:11.263Z,6.43
2024-01-06T10:03:17.651Z,6.41
2024-01-06T10:06:21.994Z,6.50
2024-01-06T10:09:29.950Z,6.57
2024-01-06T10:12:33.614Z,6.54
2024-01-06T10:15:37.693Z,6.58
2024-01-06T10:18:40.784Z,6.56
2024-01-06T10:21:45.227Z,6.57
2024-01-06T10:24:51.238Z,6.55
2024-01-06T10:27:54.492Z,6.50
2024-01-06T10:30:58.813Z,6.57
2024-01-06T10:34:01.956Z,6.47
2024-01-06T10:37:05.042Z,6.50
2024-01-06T10:40:13.481Z,6.59
2024-01-06T10:43:17.334Z,6.58
2024-01-06T10:46:20.988Z,6.56
2024-01-06T10:49:26.248Z,6.56
2024-01-06T10:52:29.670Z,6.60
2024-01-06T10:55:33.546Z,6.62
2024-01-06T10:58:43.870Z,6.64
2024-01-06T11:01:48.236Z,6.74
2024-01-06T11:04:51.820Z,6.83
2024-01-06T11:08:00.936Z,6.81
2024-01-06T11:11:05.685Z,6.89
2024-01-06T11:14:34.275Z,6.79
2024-01-06T11:17:57.487Z,6.83
2024-01-06T11:21:13.954Z,6.78
2024-01-06T11:24:25.797Z,6.72
2024-01-06T11:27:32.650Z,6.71
2024-01-06T11:31:10.351Z,6.72
2024-01-06T11:34:16.116Z,6.79
2024-01-06T11:37:21.536Z,6.82
2024-01-06T11:40:25.806Z,6.86
2024-01-06T11:43:28.669Z,6.90
2024-01-06T11:46:31.596Z,6.92
2024-01-06T11:49:35.247Z,6.89
2024-01-06T11:52:41.191Z,6.91
2024-01-06T11:55:44.532Z,6.94
2024-01-06T11:58:47.746Z,6.94
2024-01-06T12:01:50.942Z,6.94
2024-01-06T12:04:55.031Z,6.95
2024-01-06T12:08:03.955Z,6.95
2024-01-06T12:11:08.710Z,6.95
2024-01-06T12:14:12.167Z,6.95
2024-01-06T12:17:15.501Z,6.90
2024-01-06T12:20:18.313Z,6.85
2024-01-06T12:23:29.138Z,6.85
2024-01-06T12:26:32.582Z,6.85
2024-01-06T12:29:39.174Z,6.87
2024-01-06T12:32:42.301Z,6.90
2024-01-06T12:35:47.089Z,6.96
2024-01-06T12:38:50.473Z,6.90
2024-01-06T12:41:53.270Z,6.92
2024-01-06T12:44:56.440Z,6.91
2024-01-06T12:47:59.577Z,6.93
2024-01-06T12:51:02.403Z,6.93
2024-01-06T12:54:05.530Z,6.95
2024-01-06T12:57:09.021Z,6.93
2024-01-06T13:00:13.422Z,6.97
2024-01-06T13:03:16.843Z,6.96
2024-01-06T13:06:20.331Z,6.94
2024-01-06T13:09:25.240Z,6.93
2024-01-06T13:12:30.313Z,6.90
2024-01-06T13:15:33.622Z,6.91
2024-01-06T13:18:37.007Z,6.93
2024-01-06T13:21:40.660Z,7.00
2024-01-06T13:24:43.576Z,7.05
2024-01-06T13:27:46.698Z,7.06
2024-01-06T13:30:50.726Z,7.03
2024-01-06T13:33:53.993Z,7.08
2024-01-06T13:36:58.581Z,7.10
2024-01-06T13:40:01.627Z,7.06
2024-01-06T13:43:06.375Z,7.04
2024-01-06T13:46:09.402Z,7.07
2024-01-06T13:49:13.291Z,7.06
2024-01-06T13:52:16.650Z,7.03
2024-01-06T13:55:19.939Z,7.02
2024-01-06T13:58:23.071Z,7.03
2024-01-06T14:01:26.206Z,7.01
2024-01-06T14:04:29.179Z,7.01
2024-01-06T14:07:32.115Z,6.97
2024-01-06T14:10:35.192Z,6.96
2024-01-06T14:13:38.106Z,7.02
2024-01-06T14:16:41.439Z,6.97
2024-01-06T14:19:48.161Z,6.95
2024-01-06T14:22:51.517Z,6.96
2024-01-06T14:25:54.790Z,6.93
2024-01-06T14:28:59.068Z,6.97
2024-01-06T14:32:02.189Z,7.02
2024-01-06T14:35:07.810Z,7.05
2024-01-06T14:38:11.275Z,7.07
2024-01-06T14:41:14.367Z,7.17
2024-01-06T14:44:23.678Z,7.08
2024-01-06T14:47:26.577Z,7.18
2024-01-06T14:50:29.683Z,7.16
2024-01-06T14:53:32.837Z,7.16
2024-01-06T14:56:39.900Z,7.10
2024-01-06T14:59:44.390Z,7.12
2024-01-06T15:02:48.044Z,7.11
2024-01-06T15:05:51.216Z,7.08
2024-01-06T15:08:54.923Z,7.07
2024-01-06T15:11:57.762Z,7.07
2024-01-06T15:15:00.663Z,7.05
2024-01-06T15:18:04.036Z,7.07
2024-01-06T15:21:07.159Z,7.03
2024-01-06T15:24:10.628Z,7.04
2024-01-06T15:27:13.551Z,7.05
2024-01-06T15:30:17.449Z,7.09
2024-01-06T15:33:20.856Z,7.05
2024-01-06T15:36:24.086Z,7.08
2024-01-06T15:39:27.017Z,7.13
2024-01-06T15:42:30.563Z,7.09
2024-01-06T15:45:33.854Z,7.13
2024-01-06T15:48:37.768Z,7.12
2024-01-06T15:51:41.654Z,7.09
2024-01-06T15:54:44.545Z,7.10
2024-01-06T15:57:47.857Z,7.06
2024-01-06T16:00:50.972Z,7.04
2024-01-06T16:03:53.966Z,7.06
2024-01-06T16:06:56.896Z,7.05
2024-01-06T16:09:59.920Z,7.05
2024-01-06T16:13:03.371Z,7.03
2024-01-06T16:16:08.636Z,7.04
2024-01-06T16:19:11.798Z,6.96
2024-01-06T16:22:17.952Z,6.96
2024-01-06T16:25:21.483Z,6.98
2024-01-06T16:28:24.638Z,7.03
2024-01-06T16:31:28.428Z,7.11
2024-01-06T16:34:31.477Z,7.13
2024-01-06T16:37:34.379Z,7.21
2024-01-06T16:40:37.207Z,7.22
2024-01-06T16:43:40.400Z,7.20
2024-01-06T16:46:43.656Z,7.20
2024-01-06T16:49:46.896Z,7.17
2024-01-06T16:52:50.148Z,7.14
2024-01-06T16:55:53.176Z,7.13
2024-01-06T16:58:56.338Z,7.11
2024-01-06T17:02:00.094Z,7.03
2024-01-06T17:05:03.584Z,7.06
2024-01-06T17:08:07.141Z,7.02
2024-01-06T17:11:10.558Z,7.08
2024-01-06T17:14:15.349Z,7.12
2024-01-06T17:17:18.485Z,7.20
2024-01-06T17:20:21.545Z,7.17
2024-01-06T17:23:25.912Z,7.17
2024-01-06T17:26:29.127Z,7.20
2024-01-06T17:29:31.961Z,7.20
2024-01-06T17:32:34.982Z,7.28
2024-01-06T17:35:38.277Z,7.22
2024-01-06T17:38:41.628Z,7.11
2024-01-06T17:41:52.899Z,7.13
2024-01-06T17:45:00.724Z,7.09
2024-01-06T17:48:04.665Z,7.05
2024-01-06T17:51:07.819Z,7.07
2024-01-06T17:54:11.512Z,7.02
2024-01-06T17:57:19.212Z,7.04
2024-01-06T18:00:23.321Z,7.00
2024-01-06T18:03:26.535Z,6.96
2024-01-06T18:06:30.206Z,6.96
2024-01-06T18:09:33.268Z,6.95
2024-01-06T18:12:37.717Z,7.00
2024-01-06T18:15:40.725Z,7.00
2024-01-06T18:18:44.019Z,6.99
2024-01-06T18:21:47.593Z,7.00
2024-01-06T18:24:50.789Z,7.09
2024-01-06T18:27:53.856Z,7.15
2024-01-06T18:30:57.000Z,7.24
2024-01-06T18:34:00.635Z,7.25
2024-01-06T18:37:03.819Z,7.25
2024-01-06T18:40:07.424Z,7.24
2024-01-06T18:43:10.510Z,7.30
2024-01-06T18:46:13.448Z,7.30
2024-01-06T18:49:17.479Z,7.31
2024-01-06T18:52:21.676Z,7.33
2024-01-06T18:55:24.957Z,7.35
2024-01-06T18:58:28.156Z,7.37
2024-01-06T19:01:32.460Z,7.35
2024-01-06T19:04:35.740Z,7.31
2024-01-06T19:07:39.003Z,7.32
2024-01-06T19:10:42.169Z,7.32
2024-01-06T19:13:46.068Z,7.34
2024-01-06T19:16:49.278Z,7.34
2024-01-06T19:19:52.445Z,7.36
2024-01-06T19:23:02.941Z,7.34
2024-01-06T19:26:12.332Z,7.32
2024-01-06T19:29:15.167Z,7.33
2024-01-06T19:32:19.112Z,7.40
2024-01-06T19:35:22.030Z,7.35
2024-01-06T19:38:25.474Z,7.35
2024-01-06T19:41:29.587Z,7.38
2024-01-06T19:44:32.849Z,7.38
2024-01-06T19:47:36.122Z,7.38
2024-01-06T19:50:39.242Z,7.37
2024-01-06T19:53:42.237Z,7.41
2024-01-06T19:56:45.430Z,7.37
2024-01-06T19:59:50.876Z,7.39
2024-01-06T20:02:54.463Z,7.34
2024-01-06T20:05:57.624Z,7.28
2024-01-06T20:09:00.962Z,7.28
2024-01-06T20:12:04.274Z,7.22
2024-01-06T20:15:10.936Z,7.16
2024-01-06T20:18:15.141Z,7.19
2024-01-06T20:21:18.629Z,7.17
2024-01-06T20:24:22.034Z,7.03
2024-01-06T20:27:25.277Z,7.01
2024-01-06T20:30:28.586Z,7.07
2024-01-06T20:33:34.866Z,7.01
2024-01-06T20:36:38.847Z,7.02
2024-01-06T20:39:42.194Z,6.88
2024-01-06T20:42:45.446Z,6.82
2024-01-06T20:45:50.223Z,6.80
2024-01-06T20:48:54.446Z,6.85
2024-01-06T20:51:58.532Z,6.86
2024-01-06T20:55:02.529Z,6.84
2024-01-06T20:58:05.649Z,6.90
2024-01-06T21:01:08.821Z,6.75
2024-01-06T21:04:11.898Z,6.74
2024-01-06T21:07:15.220Z,6.77
2024-01-06T21:10:18.651Z,6.76
2024-01-06T21:13:21.697Z,6.78
2024-01-06T21:16:25.792Z,6.83
2024-01-06T21:19:29.685Z,6.72
2024-01-06T21:22:35.081Z,6.80
2024-01-06T21:25:39.490Z,6.75
2024-01-06T21:28:42.584Z,6.72
2024-01-06T21:31:45.672Z,6.77
2024-01-06T21:34:48.646Z,6.83
2024-01-06T21:37:51.547Z,6.86
2024-01-06T21:40:54.456Z,6.73
2024-01-06T21:43:58.259Z,6.72
2024-01-06T21:47:04.144Z,6.78
2024-01-06T21:50:09.415Z,6.81
2024-01-06T21:53:12.970Z,6.70
2024-01-06T21:56:15.836Z,6.71
2024-01-06T21:59:20.902Z,6.76
2024-01-06T22:02:23.865Z,6.68
2024-01-06T22:05:28.361Z,6.67
2024-01-06T22:08:31.502Z,6.69
2024-01-06T22:11:39.306Z,6.72
2024-01-06T22:14:43.588Z,6.72
2024-01-06T22:17:46.646Z,6.73
2024-01-06T22:20:49.529Z,6.65
2024-01-06T22:23:55.904Z,6.63
2024-01-06T22:26:59.058Z,6.67
2024-01-06T22:30:01.873Z,6.70
2024-01-06T22:33:05.494Z,6.59
2024-01-06T22:36:12.955Z,6.55
2024-01-06T22:39:20.412Z,6.59
2024-01-06T22:42:23.670Z,6.50
2024-01-06T22:45:29.281Z,6.49
2024-01-06T22:48:33.658Z,6.44
2024-01-06T22:51:37.243Z,6.46
2024-01-06T22:54:41.526Z,6.48
2024-01-06T22:57:44.613Z,6.41
2024-01-06T23:00:47.794Z,6.36
2024-01-06T23:03:51.040Z,6.37
2024-01-06T23:06:55.217Z,6.37
2024-01-06T23:09:58.301Z,6.38
2024-01-06T23:13:01.449Z,6.34
2024-01-06T23:16:04.946Z,6.32
2024-01-06T23:19:08.263Z,6.32
2024-01-06T23:22:11.563Z,6.33
2024-01-06T23:25:15.939Z,6.31
2024-01-06T23:28:22.604Z,6.35
2024-01-06T23:31:25.798Z,6.39
2024-01-06T23:34:38.349Z,6.38
2024-01-06T23:37:49.079Z,6.47
2024-01-06T23:40:52.150Z,6.50
2024-01-06T23:43:55.270Z,6.47
2024-01-06T23:46:58.457Z,6.48
2024-01-06T23:50:03.090Z,6.48
2024-01-06T23:53:06.501Z,6.49
2024-01-06T23:56:09.672Z,6.48
2024-01-06T23:59:13.954Z,6.47
